sensor_id;sensor_type;location;lat;lon;timestamp;pressure;altitude;pressure_sealevel;temperature;humidity
4814;BME280;15375;48.540;9.268;2023-09-12T00:00:40;97020.13;;;18.73;100.00
4814;BME280;15375;48.540;9.268;2023-09-12T00:03:05;96999.91;;;18.81;100.00
4814;BME280;15375;48.540;9.268;2023-09-12T00:05:30;97012.78;;;18.70;100.00
4814;BME280;15375;48.540;9.268;2023-09-12T00:07:56;97008.81;;;18.27;100.00
4814;BME280;15375;48.540;9.268;2023-09-12T00:10:21;97019.25;;;18.23;100.00
4814;BME280;15375;48.540;9.268;2023-09-12T00:12:47;97008.22;;;18.08;100.00
4814;BME280;15375;48.540;9.268;2023-09-12T00:15:12;96987.84;;;17.91;100.00
4814;BME280;15375;48.540;9.268;2023-09-12T00:17:37;97014.31;;;18.41;100.00
4814;BME280;15375;48.540;9.268;2023-09-12T00:20:03;97017.19;;;18.32;100.00
4814;BME280;15375;48.540;9.268;2023-09-12T00:22:31;97014.22;;;18.21;100.00
4814;BME280;15375;48.540;9.268;2023-09-12T00:24:57;97012.41;;;18.33;100.00
4814;BME280;15375;48.540;9.268;2023-09-12T00:27:22;97008.44;;;18.48;100.00
4814;BME280;15375;48.540;9.268;2023-09-12T00:29:47;97001.41;;;18.48;100.00
4814;BME280;15375;48.540;9.268;2023-09-12T00:32:13;96988.97;;;18.28;100.00
4814;BME280;15375;48.540;9.268;2023-09-12T00:34:38;96983.47;;;18.14;100.00
4814;BME280;15375;48.540;9.268;2023-09-12T00:37:04;96989.75;;;18.14;100.00
4814;BME280;15375;48.540;9.268;2023-09-12T00:39:29;97019.63;;;18.30;100.00
4814;BME280;15375;48.540;9.268;2023-09-12T00:41:55;97002.13;;;18.33;100.00
4814;BME280;15375;48.540;9.268;2023-09-12T00:44:21;97004.41;;;18.20;100.00
4814;BME280;15375;48.540;9.268;2023-09-12T00:46:48;97002.31;;;18.01;100.00
4814;BME280;15375;48.540;9.268;2023-09-12T00:49:15;97018.09;;;18.00;100.00
4814;BME280;15375;48.540;9.268;2023-09-12T00:51:42;97001.72;;;17.82;100.00
4814;BME280;15375;48.540;9.268;2023-09-12T00:54:08;97007.13;;;17.76;100.00
4814;BME280;15375;48.540;9.268;2023-09-12T00:56:34;96993.31;;;17.62;100.00
4814;BME280;15375;48.540;9.268;2023-09-12T00:59:00;97006.03;;;17.59;100.00
4814;BME280;15375;48.540;9.268;2023-09-12T01:01:26;97005.16;;;17.53;100.00
4814;BME280;15375;48.540;9.268;2023-09-12T01:03:52;97002.66;;;17.79;100.00
4814;BME280;15375;48.540;9.268;2023-09-12T01:06:21;96997.00;;;17.97;100.00
4814;BME280;15375;48.540;9.268;2023-09-12T01:08:47;96999.66;;;18.21;100.00
4814;BME280;15375;48.540;9.268;2023-09-12T01:11:13;97002.50;;;18.26;100.00
4814;BME280;15375;48.540;9.268;2023-09-12T01:13:39;97012.13;;;18.16;100.00
4814;BME280;15375;48.540;9.268;2023-09-12T01:16:04;97005.25;;;17.97;100.00
4814;BME280;15375;48.540;9.268;2023-09-12T01:18:29;97009.53;;;17.98;100.00
4814;BME280;15375;48.540;9.268;2023-09-12T01:27:10;97020.38;;;17.87;100.00
4814;BME280;15375;48.540;9.268;2023-09-12T01:29:37;97023.97;;;17.78;100.00
4814;BME280;15375;48.540;9.268;2023-09-12T01:32:04;97019.19;;;17.64;100.00
4814;BME280;15375;48.540;9.268;2023-09-12T01:34:29;97027.53;;;17.70;100.00
4814;BME280;15375;48.540;9.268;2023-09-12T01:36:55;97015.38;;;17.62;100.00
4814;BME280;15375;48.540;9.268;2023-09-12T01:39:20;97002.81;;;17.61;100.00
4814;BME280;15375;48.540;9.268;2023-09-12T01:41:47;97024.53;;;17.82;100.00
4814;BME280;15375;48.540;9.268;2023-09-12T01:44:14;97010.41;;;17.90;100.00
4814;BME280;15375;48.540;9.268;2023-09-12T01:46:40;97003.91;;;17.93;100.00
4814;BME280;15375;48.540;9.268;2023-09-12T01:49:07;97024.25;;;17.80;100.00
4814;BME280;15375;48.540;9.268;2023-09-12T01:51:34;97023.78;;;17.82;100.00
4814;BME280;15375;48.540;9.268;2023-09-12T01:54:02;97029.31;;;17.82;100.00
4814;BME280;15375;48.540;9.268;2023-09-12T01:56:28;97017.47;;;17.67;100.00
4814;BME280;15375;48.540;9.268;2023-09-12T01:58:55;97023.28;;;17.69;100.00
4814;BME280;15375;48.540;9.268;2023-09-12T02:01:21;97015.84;;;17.75;100.00
4814;BME280;15375;48.540;9.268;2023-09-12T02:03:46;96979.56;;;17.53;100.00
4814;BME280;15375;48.540;9.268;2023-09-12T02:06:11;97003.09;;;17.63;100.00
4814;BME280;15375;48.540;9.268;2023-09-12T02:08:37;97015.94;;;17.66;100.00
4814;BME280;15375;48.540;9.268;2023-09-12T02:11:02;97008.69;;;17.54;100.00
4814;BME280;15375;48.540;9.268;2023-09-12T02:13:27;97009.31;;;17.49;100.00
4814;BME280;15375;48.540;9.268;2023-09-12T02:16:00;97020.97;;;17.67;100.00
4814;BME280;15375;48.540;9.268;2023-09-12T02:18:25;96997.56;;;17.63;100.00
4814;BME280;15375;48.540;9.268;2023-09-12T02:20:50;97010.72;;;17.68;100.00
4814;BME280;15375;48.540;9.268;2023-09-12T02:23:16;97014.06;;;17.72;100.00
4814;BME280;15375;48.540;9.268;2023-09-12T02:25:41;97006.38;;;17.52;100.00
4814;BME280;15375;48.540;9.268;2023-09-12T02:28:06;97016.75;;;17.34;100.00
4814;BME280;15375;48.540;9.268;2023-09-12T02:30:32;97015.00;;;17.21;100.00
4814;BME280;15375;48.540;9.268;2023-09-12T02:32:57;97005.16;;;17.06;100.00
4814;BME280;15375;48.540;9.268;2023-09-12T02:35:22;97015.00;;;17.21;100.00
4814;BME280;15375;48.540;9.268;2023-09-12T02:37:48;97002.81;;;17.13;100.00
4814;BME280;15375;48.540;9.268;2023-09-12T02:40:13;96998.63;;;17.18;100.00
4814;BME280;15375;48.540;9.268;2023-09-12T02:42:39;96996.59;;;17.28;100.00
4814;BME280;15375;48.540;9.268;2023-09-12T02:45:05;96988.97;;;17.22;100.00
4814;BME280;15375;48.540;9.268;2023-09-12T02:47:31;96994.19;;;17.20;100.00
4814;BME280;15375;48.540;9.268;2023-09-12T02:49:56;96986.44;;;17.10;100.00
4814;BME280;15375;48.540;9.268;2023-09-12T02:52:21;96987.97;;;17.11;100.00
4814;BME280;15375;48.540;9.268;2023-09-12T02:54:47;96976.13;;;16.96;100.00
4814;BME280;15375;48.540;9.268;2023-09-12T02:57:12;96969.63;;;17.08;100.00
4814;BME280;15375;48.540;9.268;2023-09-12T02:59:38;96995.06;;;17.27;100.00
4814;BME280;15375;48.540;9.268;2023-09-12T03:02:06;96981.50;;;17.61;100.00
4814;BME280;15375;48.540;9.268;2023-09-12T03:04:34;96974.50;;;17.51;100.00
4814;BME280;15375;48.540;9.268;2023-09-12T03:07:00;96978.63;;;17.56;100.00
4814;BME280;15375;48.540;9.268;2023-09-12T03:09:25;96982.22;;;17.23;100.00
4814;BME280;15375;48.540;9.268;2023-09-12T03:11:50;96987.50;;;17.12;100.00
4814;BME280;15375;48.540;9.268;2023-09-12T03:14:16;96981.69;;;17.10;100.00
4814;BME280;15375;48.540;9.268;2023-09-12T03:16:41;96985.94;;;16.88;100.00
4814;BME280;15375;48.540;9.268;2023-09-12T03:19:07;96988.03;;;16.69;100.00
4814;BME280;15375;48.540;9.268;2023-09-12T03:21:32;96982.41;;;16.64;100.00
4814;BME280;15375;48.540;9.268;2023-09-12T03:23:57;96973.41;;;16.54;100.00
4814;BME280;15375;48.540;9.268;2023-09-12T03:26:23;96990.31;;;16.71;100.00
4814;BME280;15375;48.540;9.268;2023-09-12T03:28:51;96984.34;;;16.72;100.00
4814;BME280;15375;48.540;9.268;2023-09-12T03:31:18;96976.06;;;16.81;100.00
4814;BME280;15375;48.540;9.268;2023-09-12T03:33:44;96987.94;;;16.87;100.00
4814;BME280;15375;48.540;9.268;2023-09-12T03:36:15;96978.69;;;16.76;100.00
4814;BME280;15375;48.540;9.268;2023-09-12T03:38:41;96964.84;;;16.61;100.00
4814;BME280;15375;48.540;9.268;2023-09-12T03:41:06;96981.97;;;16.89;100.00
4814;BME280;15375;48.540;9.268;2023-09-12T03:43:33;96977.97;;;16.90;100.00
4814;BME280;15375;48.540;9.268;2023-09-12T03:45:58;96986.44;;;16.86;100.00
4814;BME280;15375;48.540;9.268;2023-09-12T03:48:24;96979.81;;;16.93;100.00
4814;BME280;15375;48.540;9.268;2023-09-12T03:50:50;96982.06;;;16.94;100.00
4814;BME280;15375;48.540;9.268;2023-09-12T03:53:15;96976.81;;;17.05;100.00
4814;BME280;15375;48.540;9.268;2023-09-12T03:55:41;96982.63;;;17.07;100.00
4814;BME280;15375;48.540;9.268;2023-09-12T03:58:07;96967.78;;;16.81;100.00
4814;BME280;15375;48.540;9.268;2023-09-12T04:00:32;96976.97;;;16.78;100.00
4814;BME280;15375;48.540;9.268;2023-09-12T04:02:57;96975.13;;;16.42;100.00
4814;BME280;15375;48.540;9.268;2023-09-12T04:05:23;96984.03;;;16.28;100.00
4814;BME280;15375;48.540;9.268;2023-09-12T04:07:48;96985.84;;;16.31;100.00
4814;BME280;15375;48.540;9.268;2023-09-12T04:10:14;96973.13;;;16.34;100.00
4814;BME280;15375;48.540;9.268;2023-09-12T04:12:39;96987.47;;;16.47;100.00
4814;BME280;15375;48.540;9.268;2023-09-12T04:15:06;96969.50;;;16.70;100.00
4814;BME280;15375;48.540;9.268;2023-09-12T04:17:31;96972.47;;;16.57;100.00
4814;BME280;15375;48.540;9.268;2023-09-12T04:19:56;96979.84;;;16.42;100.00
4814;BME280;15375;48.540;9.268;2023-09-12T04:22:22;96991.50;;;16.37;100.00
4814;BME280;15375;48.540;9.268;2023-09-12T04:24:47;96987.13;;;16.12;100.00
4814;BME280;15375;48.540;9.268;2023-09-12T04:27:13;96989.59;;;16.10;100.00
4814;BME280;15375;48.540;9.268;2023-09-12T04:29:38;96991.25;;;16.08;100.00
4814;BME280;15375;48.540;9.268;2023-09-12T04:32:05;96990.16;;;16.23;100.00
4814;BME280;15375;48.540;9.268;2023-09-12T04:34:30;96988.16;;;16.33;100.00
4814;BME280;15375;48.540;9.268;2023-09-12T04:36:56;96985.41;;;16.33;100.00
4814;BME280;15375;48.540;9.268;2023-09-12T04:39:21;96969.22;;;16.26;100.00
4814;BME280;15375;48.540;9.268;2023-09-12T04:41:47;96981.81;;;16.50;100.00
4814;BME280;15375;48.540;9.268;2023-09-12T04:44:12;96991.47;;;16.46;100.00
4814;BME280;15375;48.540;9.268;2023-09-12T04:46:38;96989.22;;;16.35;100.00
4814;BME280;15375;48.540;9.268;2023-09-12T04:49:03;96984.72;;;16.47;100.00
4814;BME280;15375;48.540;9.268;2023-09-12T04:51:28;96949.53;;;16.60;100.00
4814;BME280;15375;48.540;9.268;2023-09-12T04:53:54;96937.00;;;16.50;100.00
4814;BME280;15375;48.540;9.268;2023-09-12T04:56:20;96993.00;;;16.56;100.00
4814;BME280;15375;48.540;9.268;2023-09-12T04:58:45;96956.56;;;16.61;100.00
4814;BME280;15375;48.540;9.268;2023-09-12T05:01:11;96963.38;;;16.75;100.00
4814;BME280;15375;48.540;9.268;2023-09-12T05:03:36;96967.03;;;17.04;100.00
4814;BME280;15375;48.540;9.268;2023-09-12T05:06:02;96975.06;;;17.41;100.00
4814;BME280;15375;48.540;9.268;2023-09-12T05:08:28;96964.50;;;17.39;100.00
4814;BME280;15375;48.540;9.268;2023-09-12T05:10:54;96971.59;;;17.07;100.00
4814;BME280;15375;48.540;9.268;2023-09-12T05:13:19;96977.63;;;16.97;100.00
4814;BME280;15375;48.540;9.268;2023-09-12T05:15:45;96989.53;;;17.03;100.00
4814;BME280;15375;48.540;9.268;2023-09-12T05:18:11;96962.91;;;16.76;100.00
4814;BME280;15375;48.540;9.268;2023-09-12T05:20:37;96958.84;;;16.63;100.00
4814;BME280;15375;48.540;9.268;2023-09-12T05:23:02;96958.06;;;16.62;100.00
4814;BME280;15375;48.540;9.268;2023-09-12T05:25:27;96978.91;;;16.87;100.00
4814;BME280;15375;48.540;9.268;2023-09-12T05:27:54;96974.72;;;17.00;100.00
4814;BME280;15375;48.540;9.268;2023-09-12T05:30:19;96980.75;;;17.13;100.00
4814;BME280;15375;48.540;9.268;2023-09-12T05:32:45;96946.03;;;17.07;100.00
4814;BME280;15375;48.540;9.268;2023-09-12T05:35:10;96983.44;;;17.22;100.00
4814;BME280;15375;48.540;9.268;2023-09-12T05:37:35;96977.06;;;17.16;100.00
4814;BME280;15375;48.540;9.268;2023-09-12T05:40:01;96993.50;;;17.73;100.00
4814;BME280;15375;48.540;9.268;2023-09-12T05:42:26;96976.56;;;18.82;100.00
4814;BME280;15375;48.540;9.268;2023-09-12T05:44:52;96989.00;;;20.13;100.00
4814;BME280;15375;48.540;9.268;2023-09-12T05:47:20;96989.69;;;21.39;91.28
4814;BME280;15375;48.540;9.268;2023-09-12T05:49:46;96990.72;;;22.34;81.60
4814;BME280;15375;48.540;9.268;2023-09-12T05:52:12;96986.97;;;22.75;78.54
4814;BME280;15375;48.540;9.268;2023-09-12T05:54:38;96994.16;;;23.51;74.75
4814;BME280;15375;48.540;9.268;2023-09-12T05:57:04;96997.56;;;24.31;70.93
4814;BME280;15375;48.540;9.268;2023-09-12T05:59:30;96991.97;;;24.66;68.64
4814;BME280;15375;48.540;9.268;2023-09-12T06:01:55;96983.16;;;25.64;64.07
4814;BME280;15375;48.540;9.268;2023-09-12T06:04:21;96998.88;;;26.23;63.72
4814;BME280;15375;48.540;9.268;2023-09-12T06:06:47;96992.16;;;26.32;61.95
4814;BME280;15375;48.540;9.268;2023-09-12T06:09:12;96995.16;;;26.34;61.47
4814;BME280;15375;48.540;9.268;2023-09-12T06:11:37;96977.34;;;25.99;61.61
4814;BME280;15375;48.540;9.268;2023-09-12T06:14:03;96991.81;;;26.54;61.19
4814;BME280;15375;48.540;9.268;2023-09-12T06:16:28;96971.47;;;26.85;58.99
4814;BME280;15375;48.540;9.268;2023-09-12T06:18:55;96986.53;;;27.53;59.45
4814;BME280;15375;48.540;9.268;2023-09-12T06:21:20;96978.69;;;29.07;52.53
4814;BME280;15375;48.540;9.268;2023-09-12T06:24:13;96986.00;;;29.67;50.08
4814;BME280;15375;48.540;9.268;2023-09-12T06:26:39;96992.78;;;30.15;49.51
4814;BME280;15375;48.540;9.268;2023-09-12T06:29:04;97005.25;;;28.65;52.39
4814;BME280;15375;48.540;9.268;2023-09-12T06:31:30;97002.81;;;26.15;60.97
4814;BME280;15375;48.540;9.268;2023-09-12T06:33:56;97022.38;;;25.53;63.83
4814;BME280;15375;48.540;9.268;2023-09-12T06:36:23;97001.41;;;24.57;69.09
4814;BME280;15375;48.540;9.268;2023-09-12T06:38:49;96987.19;;;23.79;73.13
4814;BME280;15375;48.540;9.268;2023-09-12T06:41:14;97015.88;;;23.69;73.69
4814;BME280;15375;48.540;9.268;2023-09-12T06:43:40;97011.91;;;23.42;75.39
4814;BME280;15375;48.540;9.268;2023-09-12T06:46:05;96997.03;;;23.06;77.33
4814;BME280;15375;48.540;9.268;2023-09-12T06:48:30;97011.47;;;22.99;78.94
4814;BME280;15375;48.540;9.268;2023-09-12T06:50:56;97000.63;;;22.68;81.16
4814;BME280;15375;48.540;9.268;2023-09-12T06:53:21;96983.69;;;22.71;80.15
4814;BME280;15375;48.540;9.268;2023-09-12T06:55:47;96997.56;;;22.33;81.46
4814;BME280;15375;48.540;9.268;2023-09-12T06:58:12;97015.69;;;22.06;83.37
4814;BME280;15375;48.540;9.268;2023-09-12T07:00:37;97022.34;;;21.66;87.86
4814;BME280;15375;48.540;9.268;2023-09-12T07:03:03;97030.88;;;21.09;90.31
4814;BME280;15375;48.540;9.268;2023-09-12T07:05:29;97020.13;;;21.28;92.04
4814;BME280;15375;48.540;9.268;2023-09-12T07:07:54;97024.00;;;21.05;91.65
4814;BME280;15375;48.540;9.268;2023-09-12T07:10:20;97039.13;;;21.04;92.89
4814;BME280;15375;48.540;9.268;2023-09-12T07:12:45;97029.16;;;20.86;95.00
4814;BME280;15375;48.540;9.268;2023-09-12T07:15:10;97036.31;;;20.98;95.52
4814;BME280;15375;48.540;9.268;2023-09-12T07:17:36;97022.50;;;21.04;94.45
4814;BME280;15375;48.540;9.268;2023-09-12T07:20:01;97036.72;;;21.17;93.07
4814;BME280;15375;48.540;9.268;2023-09-12T07:22:27;97039.38;;;21.42;92.28
4814;BME280;15375;48.540;9.268;2023-09-12T07:24:52;97020.72;;;21.43;88.84
4814;BME280;15375;48.540;9.268;2023-09-12T07:27:17;97039.28;;;21.74;92.36
4814;BME280;15375;48.540;9.268;2023-09-12T07:29:43;97029.75;;;21.86;90.36
4814;BME280;15375;48.540;9.268;2023-09-12T07:32:08;97022.91;;;21.81;89.66
4814;BME280;15375;48.540;9.268;2023-09-12T07:34:33;97027.81;;;22.08;87.30
4814;BME280;15375;48.540;9.268;2023-09-12T07:36:59;97048.06;;;22.20;88.74
4814;BME280;15375;48.540;9.268;2023-09-12T07:39:24;97042.22;;;22.12;86.01
4814;BME280;15375;48.540;9.268;2023-09-12T07:41:50;97034.91;;;22.20;86.69
4814;BME280;15375;48.540;9.268;2023-09-12T07:44:15;97054.31;;;22.04;86.52
4814;BME280;15375;48.540;9.268;2023-09-12T07:46:42;97023.25;;;22.00;85.25
4814;BME280;15375;48.540;9.268;2023-09-12T07:49:08;97063.00;;;22.45;84.33
4814;BME280;15375;48.540;9.268;2023-09-12T07:51:34;97059.50;;;23.05;81.86
4814;BME280;15375;48.540;9.268;2023-09-12T07:54:00;97026.72;;;23.78;77.71
4814;BME280;15375;48.540;9.268;2023-09-12T07:56:26;97053.59;;;24.62;71.81
4814;BME280;15375;48.540;9.268;2023-09-12T07:58:51;97041.97;;;24.94;69.05
4814;BME280;15375;48.540;9.268;2023-09-12T08:01:16;97034.13;;;25.89;66.27
4814;BME280;15375;48.540;9.268;2023-09-12T08:03:42;97058.41;;;26.18;65.16
4814;BME280;15375;48.540;9.268;2023-09-12T08:06:08;97047.91;;;26.43;65.08
4814;BME280;15375;48.540;9.268;2023-09-12T08:08:36;97042.53;;;27.40;60.89
4814;BME280;15375;48.540;9.268;2023-09-12T08:11:01;97047.63;;;27.81;59.85
4814;BME280;15375;48.540;9.268;2023-09-12T08:13:28;97059.97;;;28.25;57.46
4814;BME280;15375;48.540;9.268;2023-09-12T08:15:55;97066.13;;;27.00;60.74
4814;BME280;15375;48.540;9.268;2023-09-12T08:18:20;97056.34;;;26.56;61.82
4814;BME280;15375;48.540;9.268;2023-09-12T08:20:46;97065.47;;;26.25;63.96
4814;BME280;15375;48.540;9.268;2023-09-12T08:23:11;97068.09;;;26.36;65.67
4814;BME280;15375;48.540;9.268;2023-09-12T08:25:37;97066.53;;;26.40;67.30
4814;BME280;15375;48.540;9.268;2023-09-12T08:28:02;97058.56;;;26.95;64.13
4814;BME280;15375;48.540;9.268;2023-09-12T08:30:28;97023.00;;;27.35;59.78
4814;BME280;15375;48.540;9.268;2023-09-12T08:32:58;97057.31;;;27.41;59.30
4814;BME280;15375;48.540;9.268;2023-09-12T08:35:23;97040.25;;;28.17;58.67
4814;BME280;15375;48.540;9.268;2023-09-12T08:37:48;97047.28;;;27.84;56.46
4814;BME280;15375;48.540;9.268;2023-09-12T08:40:14;97051.28;;;27.76;58.10
4814;BME280;15375;48.540;9.268;2023-09-12T08:42:43;97053.34;;;28.35;56.91
4814;BME280;15375;48.540;9.268;2023-09-12T08:45:16;97059.72;;;27.18;57.58
4814;BME280;15375;48.540;9.268;2023-09-12T08:47:43;97054.78;;;27.37;59.63
4814;BME280;15375;48.540;9.268;2023-09-12T08:50:14;97053.28;;;26.91;59.17
4814;BME280;15375;48.540;9.268;2023-09-12T08:52:41;97051.28;;;27.89;61.04
4814;BME280;15375;48.540;9.268;2023-09-12T08:55:08;97033.19;;;27.64;57.31
4814;BME280;15375;48.540;9.268;2023-09-12T08:57:36;97052.03;;;28.50;58.08
4814;BME280;15375;48.540;9.268;2023-09-12T09:00:04;97040.19;;;28.77;55.42
4814;BME280;15375;48.540;9.268;2023-09-12T09:02:43;97048.63;;;29.75;53.74
4814;BME280;15375;48.540;9.268;2023-09-12T09:05:11;97039.84;;;29.79;53.20
4814;BME280;15375;48.540;9.268;2023-09-12T09:07:38;97047.06;;;29.95;54.15
4814;BME280;15375;48.540;9.268;2023-09-12T09:10:05;97048.81;;;29.77;55.82
4814;BME280;15375;48.540;9.268;2023-09-12T09:12:32;97033.56;;;28.54;57.54
4814;BME280;15375;48.540;9.268;2023-09-12T09:14:57;97040.41;;;28.32;59.80
4814;BME280;15375;48.540;9.268;2023-09-12T09:17:23;97029.16;;;29.49;58.23
4814;BME280;15375;48.540;9.268;2023-09-12T09:19:49;97010.81;;;29.48;55.60
4814;BME280;15375;48.540;9.268;2023-09-12T09:22:14;97024.91;;;29.55;56.92
4814;BME280;15375;48.540;9.268;2023-09-12T09:24:39;97018.13;;;29.79;55.30
4814;BME280;15375;48.540;9.268;2023-09-12T09:27:05;97022.66;;;30.25;54.20
4814;BME280;15375;48.540;9.268;2023-09-12T09:29:30;97015.63;;;30.55;54.89
4814;BME280;15375;48.540;9.268;2023-09-12T09:32:00;97013.75;;;30.57;53.93
4814;BME280;15375;48.540;9.268;2023-09-12T09:34:26;96998.81;;;30.26;53.30
4814;BME280;15375;48.540;9.268;2023-09-12T09:36:56;96991.22;;;30.57;53.09
4814;BME280;15375;48.540;9.268;2023-09-12T09:39:27;96998.50;;;30.38;53.34
4814;BME280;15375;48.540;9.268;2023-09-12T09:41:55;97016.19;;;30.61;53.71
4814;BME280;15375;48.540;9.268;2023-09-12T09:44:22;97003.13;;;31.01;54.00
4814;BME280;15375;48.540;9.268;2023-09-12T09:46:54;97008.66;;;31.84;52.63
4814;BME280;15375;48.540;9.268;2023-09-12T09:49:21;96997.88;;;32.05;52.21
4814;BME280;15375;48.540;9.268;2023-09-12T09:51:46;96989.97;;;32.44;50.91
4814;BME280;15375;48.540;9.268;2023-09-12T09:54:13;96981.03;;;32.87;49.33
4814;BME280;15375;48.540;9.268;2023-09-12T09:56:46;96992.34;;;32.87;49.27
4814;BME280;15375;48.540;9.268;2023-09-12T09:59:14;96961.59;;;33.16;47.06
4814;BME280;15375;48.540;9.268;2023-09-12T10:01:41;96962.47;;;33.77;45.45
4814;BME280;15375;48.540;9.268;2023-09-12T10:04:08;96973.88;;;33.70;44.07
4814;BME280;15375;48.540;9.268;2023-09-12T10:06:36;96988.75;;;33.87;45.87
4814;BME280;15375;48.540;9.268;2023-09-12T10:09:11;96965.28;;;33.01;45.61
4814;BME280;15375;48.540;9.268;2023-09-12T10:11:38;96971.16;;;33.20;46.17
4814;BME280;15375;48.540;9.268;2023-09-12T10:14:05;96966.13;;;33.87;44.01
4814;BME280;15375;48.540;9.268;2023-09-12T10:16:36;96971.06;;;34.31;44.40
4814;BME280;15375;48.540;9.268;2023-09-12T10:21:35;96964.19;;;33.38;45.00
4814;BME280;15375;48.540;9.268;2023-09-12T10:24:03;96963.34;;;34.14;42.68
4814;BME280;15375;48.540;9.268;2023-09-12T10:26:30;96958.69;;;34.09;43.87
4814;BME280;15375;48.540;9.268;2023-09-12T10:29:00;96965.00;;;34.17;44.49
4814;BME280;15375;48.540;9.268;2023-09-12T10:31:26;96971.34;;;34.25;43.51
4814;BME280;15375;48.540;9.268;2023-09-12T10:33:52;96969.56;;;34.30;41.52
4814;BME280;15375;48.540;9.268;2023-09-12T10:36:19;96938.59;;;33.88;42.56
4814;BME280;15375;48.540;9.268;2023-09-12T10:38:47;96972.34;;;34.20;43.29
4814;BME280;15375;48.540;9.268;2023-09-12T10:41:14;96964.16;;;33.21;41.83
4814;BME280;15375;48.540;9.268;2023-09-12T10:43:41;96976.66;;;34.04;41.73
4814;BME280;15375;48.540;9.268;2023-09-12T10:46:07;96966.28;;;33.89;41.76
4814;BME280;15375;48.540;9.268;2023-09-12T10:48:35;96910.75;;;33.33;40.67
4814;BME280;15375;48.540;9.268;2023-09-12T10:51:02;96966.88;;;34.05;41.62
4814;BME280;15375;48.540;9.268;2023-09-12T10:53:31;96968.59;;;34.18;41.62
4814;BME280;15375;48.540;9.268;2023-09-12T10:58:33;96965.91;;;33.76;43.52
4814;BME280;15375;48.540;9.268;2023-09-12T11:01:25;96952.94;;;33.99;41.56
4814;BME280;15375;48.540;9.268;2023-09-12T11:03:51;96964.38;;;34.36;42.74
4814;BME280;15375;48.540;9.268;2023-09-12T11:06:27;96967.28;;;33.50;43.19
4814;BME280;15375;48.540;9.268;2023-09-12T11:09:23;96955.84;;;34.26;42.29
4814;BME280;15375;48.540;9.268;2023-09-12T11:14:19;96946.38;;;33.97;39.54
4814;BME280;15375;48.540;9.268;2023-09-12T11:19:46;96938.22;;;34.72;39.24
4814;BME280;15375;48.540;9.268;2023-09-12T11:22:24;96948.97;;;34.83;38.59
4814;BME280;15375;48.540;9.268;2023-09-12T11:24:50;96928.56;;;34.04;41.03
4814;BME280;15375;48.540;9.268;2023-09-12T11:27:16;96956.78;;;33.94;42.98
4814;BME280;15375;48.540;9.268;2023-09-12T11:29:42;96936.41;;;33.79;39.27
4814;BME280;15375;48.540;9.268;2023-09-12T11:32:08;96931.09;;;33.83;39.22
4814;BME280;15375;48.540;9.268;2023-09-12T11:34:40;96941.75;;;34.36;39.70
4814;BME280;15375;48.540;9.268;2023-09-12T11:37:07;96928.19;;;34.71;42.01
4814;BME280;15375;48.540;9.268;2023-09-12T11:39:34;96918.75;;;34.32;40.45
4814;BME280;15375;48.540;9.268;2023-09-12T11:42:02;96915.78;;;34.56;38.92
4814;BME280;15375;48.540;9.268;2023-09-12T11:44:28;96927.84;;;34.57;40.62
4814;BME280;15375;48.540;9.268;2023-09-12T11:46:56;96916.38;;;34.64;40.07
4814;BME280;15375;48.540;9.268;2023-09-12T11:49:28;96920.91;;;33.97;41.40
4814;BME280;15375;48.540;9.268;2023-09-12T11:51:54;96916.69;;;34.32;39.94
4814;BME280;15375;48.540;9.268;2023-09-12T11:54:26;96916.44;;;34.47;39.67
4814;BME280;15375;48.540;9.268;2023-09-12T11:56:52;96894.63;;;34.67;39.71
4814;BME280;15375;48.540;9.268;2023-09-12T11:59:31;96901.06;;;34.77;38.05
4814;BME280;15375;48.540;9.268;2023-09-12T12:01:56;96903.34;;;34.52;39.79
4814;BME280;15375;48.540;9.268;2023-09-12T12:04:23;96916.41;;;34.38;40.02
4814;BME280;15375;48.540;9.268;2023-09-12T12:06:51;96910.22;;;34.49;40.01
4814;BME280;15375;48.540;9.268;2023-09-12T12:09:18;96899.09;;;34.07;40.69
4814;BME280;15375;48.540;9.268;2023-09-12T12:11:45;96916.72;;;34.42;40.80
4814;BME280;15375;48.540;9.268;2023-09-12T12:14:15;96875.81;;;34.62;37.32
4814;BME280;15375;48.540;9.268;2023-09-12T12:16:42;96903.88;;;34.68;39.66
4814;BME280;15375;48.540;9.268;2023-09-12T12:19:09;96907.75;;;34.09;39.66
4814;BME280;15375;48.540;9.268;2023-09-12T12:21:35;96888.78;;;34.02;38.13
4814;BME280;15375;48.540;9.268;2023-09-12T12:24:01;96888.84;;;34.38;39.29
4814;BME280;15375;48.540;9.268;2023-09-12T12:26:28;96887.91;;;34.62;38.68
4814;BME280;15375;48.540;9.268;2023-09-12T12:28:54;96890.28;;;34.56;38.83
4814;BME280;15375;48.540;9.268;2023-09-12T12:31:19;96876.91;;;34.40;39.12
4814;BME280;15375;48.540;9.268;2023-09-12T12:33:49;96876.13;;;33.42;40.85
4814;BME280;15375;48.540;9.268;2023-09-12T12:36:14;96894.22;;;33.90;40.25
4814;BME280;15375;48.540;9.268;2023-09-12T12:38:40;96891.03;;;33.60;39.17
4814;BME280;15375;48.540;9.268;2023-09-12T12:41:09;96879.63;;;33.94;40.03
4814;BME280;15375;48.540;9.268;2023-09-12T12:43:34;96889.31;;;33.91;40.35
4814;BME280;15375;48.540;9.268;2023-09-12T12:46:00;96879.22;;;34.24;39.04
4814;BME280;15375;48.540;9.268;2023-09-12T12:48:32;96878.97;;;34.56;37.76
4814;BME280;15375;48.540;9.268;2023-09-12T12:50:58;96871.72;;;33.31;39.07
4814;BME280;15375;48.540;9.268;2023-09-12T12:53:40;96882.19;;;33.73;38.81
4814;BME280;15375;48.540;9.268;2023-09-12T12:56:05;96878.63;;;33.99;38.65
4814;BME280;15375;48.540;9.268;2023-09-12T12:58:31;96883.06;;;34.19;39.49
4814;BME280;15375;48.540;9.268;2023-09-12T13:00:57;96871.34;;;34.23;39.81
4814;BME280;15375;48.540;9.268;2023-09-12T13:03:22;96862.47;;;34.09;38.56
4814;BME280;15375;48.540;9.268;2023-09-12T13:05:47;96849.41;;;34.14;37.87
4814;BME280;15375;48.540;9.268;2023-09-12T13:08:13;96862.34;;;34.17;38.85
4814;BME280;15375;48.540;9.268;2023-09-12T13:10:38;96854.59;;;34.08;38.74
4814;BME280;15375;48.540;9.268;2023-09-12T13:13:03;96858.19;;;33.91;40.11
4814;BME280;15375;48.540;9.268;2023-09-12T13:15:29;96861.81;;;33.74;40.43
4814;BME280;15375;48.540;9.268;2023-09-12T13:17:55;96863.25;;;33.31;39.58
4814;BME280;15375;48.540;9.268;2023-09-12T13:20:20;96842.94;;;32.91;40.00